createdAt,value
2023-02-14T00:00:31.472Z,8.00
2023-02-14T00:01:31.494Z,7.10
2023-02-14T00:02:31.429Z,7.90
2023-02-14T00:03:31.434Z,7.80
2023-02-14T00:04:31.502Z,8.10
2023-02-14T00:05:31.402Z,7.70
2023-02-14T00:06:31.389Z,8.00
2023-02-14T00:07:31.374Z,7.30
2023-02-14T00:08:31.382Z,7.60
2023-02-14T00:09:31.347Z,8.20
2023-02-14T00:10:31.360Z,7.50
2023-02-14T00:11:31.339Z,7.90
2023-02-14T00:12:31.323Z,6.40
2023-02-14T00:13:31.321Z,7.90
2023-02-14T00:14:31.978Z,8.40
2023-02-14T00:15:31.308Z,7.70
2023-02-14T00:16:31.294Z,7.30
2023-02-14T00:17:31.288Z,7.90
2023-02-14T00:18:31.249Z,7.90
2023-02-14T00:19:31.273Z,7.20
2023-02-14T00:20:31.308Z,7.70
2023-02-14T00:21:31.232Z,8.10
2023-02-14T00:22:31.225Z,7.80
2023-02-14T00:23:31.220Z,7.90
2023-02-14T00:24:31.280Z,8.00
2023-02-14T00:25:31.249Z,7.60
2023-02-14T00:26:31.215Z,7.40
2023-02-14T00:27:31.233Z,7.90
2023-02-14T00:28:31.188Z,7.10
2023-02-14T00:29:31.206Z,8.30
2023-02-14T00:30:31.236Z,8.30
2023-02-14T00:31:31.262Z,8.80
2023-02-14T00:32:31.154Z,9.30
2023-02-14T00:33:31.323Z,8.60
2023-02-14T00:34:31.274Z,8.20
2023-02-14T00:35:31.119Z,8.50
2023-02-14T00:36:31.100Z,8.20
2023-02-14T00:37:31.221Z,8.20
2023-02-14T00:38:31.071Z,8.40
2023-02-14T00:39:31.105Z,8.00
2023-02-14T00:40:31.267Z,8.00
2023-02-14T00:41:31.204Z,8.50
2023-02-14T00:42:31.000Z,8.60
2023-02-14T00:43:31.008Z,7.20
2023-02-14T00:44:31.001Z,7.70
2023-02-14T00:45:31.058Z,7.80
2023-02-14T00:46:30.955Z,7.50
2023-02-14T00:47:30.965Z,9.20
2023-02-14T00:48:30.940Z,7.60
2023-02-14T00:49:30.929Z,6.80
2023-02-14T00:50:31.019Z,7.30
2023-02-14T00:51:30.962Z,7.60
2023-02-14T00:52:30.925Z,7.90
2023-02-14T00:53:30.914Z,8.20
2023-02-14T00:54:30.912Z,7.50
2023-02-14T00:55:31.147Z,8.10
2023-02-14T00:56:30.919Z,7.50
2023-02-14T00:57:30.856Z,8.50
2023-02-14T00:58:30.828Z,7.30
2023-02-14T00:59:30.859Z,6.70
2023-02-14T01:00:31.253Z,7.60
2023-02-14T01:01:31.184Z,7.70
2023-02-14T01:02:30.829Z,8.00
2023-02-14T01:03:31.007Z,6.80
2023-02-14T01:04:30.777Z,7.80
2023-02-14T01:05:30.805Z,8.20
2023-02-14T01:06:30.754Z,7.50
2023-02-14T01:07:30.739Z,8.00
2023-02-14T01:08:30.746Z,6.90
2023-02-14T01:09:30.737Z,6.80
2023-02-14T01:10:30.857Z,7.10
2023-02-14T01:11:30.685Z,7.40
2023-02-14T01:12:30.685Z,8.60
2023-02-14T01:13:30.703Z,7.80
2023-02-14T01:14:30.736Z,7.60
2023-02-14T01:15:30.681Z,7.40
2023-02-14T01:16:30.681Z,6.70
2023-02-14T01:17:30.639Z,7.60
2023-02-14T01:18:30.630Z,7.50
2023-02-14T01:19:30.645Z,8.10
2023-02-14T01:20:31.038Z,7.80
2023-02-14T01:21:30.627Z,8.30
2023-02-14T01:22:30.608Z,7.40
2023-02-14T01:23:30.581Z,7.20
2023-02-14T01:24:30.594Z,8.30
2023-02-14T01:25:30.655Z,7.40
2023-02-14T01:26:30.574Z,8.40
2023-02-14T01:27:30.587Z,7.30
2023-02-14T01:28:30.540Z,8.40
2023-02-14T01:29:30.616Z,7.30
2023-02-14T01:30:30.596Z,7.70
2023-02-14T01:31:30.680Z,8.00
2023-02-14T01:32:30.480Z,7.50
2023-02-14T01:33:30.469Z,8.20
2023-02-14T01:34:30.461Z,8.50
2023-02-14T01:35:30.498Z,7.10
2023-02-14T01:36:30.506Z,7.90
2023-02-14T01:37:30.424Z,7.20
2023-02-14T01:38:30.437Z,8.60
2023-02-14T01:39:30.446Z,7.50
2023-02-14T01:40:30.459Z,7.30
2023-02-14T01:41:30.391Z,6.50
2023-02-14T01:42:30.475Z,7.40
2023-02-14T01:43:30.371Z,6.70
2023-02-14T01:44:30.383Z,6.10
2023-02-14T01:45:30.422Z,6.30
2023-02-14T01:46:30.401Z,7.80
2023-02-14T01:47:30.347Z,6.40
2023-02-14T01:48:30.364Z,6.50
2023-02-14T01:49:30.325Z,6.30
2023-02-14T01:50:30.332Z,7.50
2023-02-14T01:51:30.320Z,5.90
2023-02-14T01:52:30.669Z,6.20
2023-02-14T01:53:30.274Z,6.20
2023-02-14T01:54:30.274Z,6.70
2023-02-14T01:55:30.352Z,6.20
2023-02-14T01:56:30.327Z,6.80
2023-02-14T01:57:30.309Z,6.50
2023-02-14T01:58:30.287Z,6.30
2023-02-14T01:59:30.210Z,6.50
2023-02-14T02:00:30.242Z,6.30
2023-02-14T02:01:30.628Z,5.20
2023-02-14T02:02:30.352Z,6.20
2023-02-14T02:03:30.239Z,5.90
2023-02-14T02:04:30.238Z,6.40
2023-02-14T02:05:30.177Z,6.00
2023-02-14T02:06:30.261Z,5.80
2023-02-14T02:07:30.190Z,5.50
2023-02-14T02:08:30.210Z,5.60
2023-02-14T02:09:30.138Z,6.00
2023-02-14T02:10:30.113Z,5.50
2023-02-14T02:11:30.188Z,7.30
2023-02-14T02:12:31.077Z,5.30
2023-02-14T02:13:30.064Z,5.50
2023-02-14T02:14:30.073Z,6.00
2023-02-14T02:15:30.063Z,6.60
2023-02-14T02:16:30.166Z,5.50
2023-02-14T02:17:30.064Z,5.40
2023-02-14T02:18:30.034Z,6.00
2023-02-14T02:19:30.038Z,5.50
2023-02-14T02:20:30.003Z,6.00
2023-02-14T02:21:29.998Z,6.10
2023-02-14T02:22:29.964Z,6.20
2023-02-14T02:23:30.000Z,5.80
2023-02-14T02:24:29.980Z,5.60
2023-02-14T02:25:29.970Z,5.70
2023-02-14T02:26:30.012Z,5.20
2023-02-14T02:27:29.990Z,5.30
2023-02-14T02:28:29.921Z,6.00
2023-02-14T02:29:29.945Z,5.80
2023-02-14T02:30:30.057Z,5.80
2023-02-14T02:31:30.113Z,6.00
2023-02-14T02:32:29.892Z,5.80
2023-02-14T02:33:29.937Z,5.50
2023-02-14T02:34:29.936Z,6.50
2023-02-14T02:35:29.918Z,6.40
2023-02-14T02:36:29.955Z,6.00
2023-02-14T02:37:29.921Z,6.00
2023-02-14T02:38:29.831Z,5.90
2023-02-14T02:39:29.790Z,5.80
2023-02-14T02:40:29.922Z,5.90
2023-02-14T02:41:29.801Z,5.80
2023-02-14T02:42:29.773Z,6.10
2023-02-14T02:43:29.784Z,6.00
2023-02-14T02:44:29.775Z,6.00
2023-02-14T02:45:29.727Z,6.10
2023-02-14T02:46:30.030Z,6.30
2023-02-14T02:47:29.741Z,7.20
2023-02-14T02:48:29.688Z,7.10
2023-02-14T02:49:29.716Z,5.90
2023-02-14T02:50:29.732Z,5.90
2023-02-14T02:51:29.682Z,5.30
2023-02-14T02:52:29.658Z,6.20
2023-02-14T02:53:29.682Z,6.90
2023-02-14T02:54:29.675Z,6.00
2023-02-14T02:55:29.628Z,6.70
2023-02-14T02:56:29.671Z,6.00
2023-02-14T02:57:29.689Z,5.50
2023-02-14T02:58:29.608Z,6.90
2023-02-14T02:59:29.611Z,6.00
2023-02-14T03:00:29.581Z,5.80
2023-02-14T03:01:29.692Z,6.20
2023-02-14T03:02:29.544Z,5.70
2023-02-14T03:03:29.582Z,6.20
2023-02-14T03:04:29.591Z,5.40
2023-02-14T03:05:29.574Z,6.30
2023-02-14T03:06:29.529Z,6.70
2023-02-14T03:07:29.499Z,5.60
2023-02-14T03:08:29.495Z,5.50
2023-02-14T03:09:29.580Z,5.40
2023-02-14T03:10:29.474Z,5.60
2023-02-14T03:11:29.490Z,6.00
2023-02-14T03:12:29.492Z,6.80
2023-02-14T03:13:29.488Z,6.10
2023-02-14T03:14:29.465Z,6.10
2023-02-14T03:15:29.564Z,6.30
2023-02-14T03:16:29.465Z,6.00
2023-02-14T03:17:29.389Z,6.10
2023-02-14T03:18:29.428Z,5.90
2023-02-14T03:19:29.393Z,5.40
2023-02-14T03:20:29.403Z,6.30
2023-02-14T03:21:29.402Z,6.40
2023-02-14T03:22:29.367Z,5.20
2023-02-14T03:23:29.346Z,5.00
2023-02-14T03:24:29.320Z,6.50
2023-02-14T03:25:29.340Z,5.20
2023-02-14T03:26:29.340Z,5.20
2023-02-14T03:27:29.354Z,6.30
2023-02-14T03:28:29.341Z,6.90
2023-02-14T03:29:29.984Z,5.60
2023-02-14T03:30:29.361Z,5.50
2023-02-14T03:31:29.563Z,6.20
2023-02-14T03:32:29.286Z,5.30
2023-02-14T03:33:29.306Z,6.30
2023-02-14T03:34:29.443Z,6.00
2023-02-14T03:35:29.201Z,6.10
2023-02-14T03:36:29.207Z,5.40
2023-02-14T03:37:29.231Z,5.80
2023-02-14T03:38:29.189Z,6.50
2023-02-14T03:39:29.167Z,6.10
2023-02-14T03:40:29.197Z,5.40
2023-02-14T03:41:29.254Z,5.70
2023-02-14T03:42:29.220Z,5.40
2023-02-14T03:43:29.170Z,5.70
2023-02-14T03:44:29.182Z,5.20
2023-02-14T03:45:29.240Z,5.70
2023-02-14T03:46:29.215Z,5.50
2023-02-14T03:47:29.074Z,6.00
2023-02-14T03:48:32.022Z,5.40
2023-02-14T03:49:29.061Z,5.70
2023-02-14T03:50:29.181Z,5.20
2023-02-14T03:51:29.087Z,5.60
2023-02-14T03:52:29.057Z,5.40
2023-02-14T03:53:29.035Z,5.60
2023-02-14T03:54:29.006Z,4.60
2023-02-14T03:55:28.995Z,4.90
2023-02-14T03:56:29.027Z,5.40
2023-02-14T03:57:29.056Z,5.00
2023-02-14T03:58:28.966Z,5.30
2023-02-14T03:59:28.960Z,6.20
2023-02-14T04:00:28.959Z,5.60
2023-02-14T04:01:28.976Z,6.30
2023-02-14T04:02:28.922Z,6.10
2023-02-14T04:03:28.958Z,6.10
2023-02-14T04:04:28.998Z,5.10
2023-02-14T04:05:28.898Z,5.60
2023-02-14T04:06:28.894Z,6.00
2023-02-14T04:07:28.869Z,5.40
2023-02-14T04:08:28.915Z,5.30
2023-02-14T04:09:28.856Z,5.90
2023-02-14T04:10:28.837Z,5.40
2023-02-14T04:11:28.869Z,5.70
2023-02-14T04:12:37.457Z,5.60
2023-02-14T04:13:29.877Z,5.40
2023-02-14T04:14:29.062Z,6.30
2023-02-14T04:15:28.787Z,6.20
2023-02-14T04:16:28.798Z,5.20
2023-02-14T04:17:28.767Z,5.80
2023-02-14T04:18:28.760Z,6.00
2023-02-14T04:19:28.834Z,5.40
2023-02-14T04:20:28.756Z,6.20
2023-02-14T04:21:28.750Z,5.40
2023-02-14T04:22:28.744Z,6.00
2023-02-14T04:23:28.723Z,5.80
2023-02-14T04:24:28.699Z,6.10
2023-02-14T04:25:28.682Z,6.00
2023-02-14T04:26:28.752Z,5.60
2023-02-14T04:27:28.744Z,5.60
2023-02-14T04:28:28.652Z,4.90
2023-02-14T04:29:28.653Z,6.10
2023-02-14T04:30:28.749Z,5.70
2023-02-14T04:31:28.848Z,5.10
2023-02-14T04:32:28.649Z,5.70
2023-02-14T04:33:28.656Z,6.00
2023-02-14T04:34:28.648Z,5.30
2023-02-14T04:35:28.575Z,4.80
2023-02-14T04:36:28.623Z,6.70
2023-02-14T04:37:28.600Z,5.30
2023-02-14T04:38:28.545Z,5.40
2023-02-14T04:39:28.534Z,5.30
2023-02-14T04:40:28.561Z,4.60
2023-02-14T04:41:29.504Z,5.30
2023-02-14T04:42:28.544Z,5.80
2023-02-14T04:43:28.496Z,5.00
2023-02-14T04:44:28.701Z,4.50
2023-02-14T04:45:28.991Z,5.10
2023-02-14T04:46:28.565Z,5.90
2023-02-14T04:47:28.459Z,5.50
2023-02-14T04:48:28.462Z,4.90
2023-02-14T04:49:28.435Z,6.00
2023-02-14T04:50:28.484Z,4.50
2023-02-14T04:51:28.426Z,5.40
2023-02-14T04:52:28.494Z,5.20
2023-02-14T04:53:28.389Z,4.90
2023-02-14T04:54:28.471Z,4.90
2023-02-14T04:55:28.375Z,4.70
2023-02-14T04:56:28.522Z,4.90
2023-02-14T04:57:28.974Z,5.40
2023-02-14T04:58:28.362Z,5.80
2023-02-14T04:59:28.343Z,5.90
2023-02-14T05:00:28.400Z,5.80
2023-02-14T05:01:28.360Z,5.90
2023-02-14T05:02:28.318Z,6.20
2023-02-14T05:03:28.346Z,6.00
2023-02-14T05:04:28.306Z,6.40
2023-02-14T05:05:28.276Z,6.00
2023-02-14T05:06:28.290Z,5.90
2023-02-14T05:07:28.277Z,5.90
2023-02-14T05:08:28.300Z,5.30
2023-02-14T05:09:28.412Z,5.20
2023-02-14T05:10:28.214Z,5.80
2023-02-14T05:11:28.272Z,5.80
2023-02-14T05:12:28.189Z,5.60
2023-02-14T05:13:28.193Z,6.00
2023-02-14T05:14:28.173Z,6.10
2023-02-14T05:15:28.158Z,4.60
2023-02-14T05:16:28.189Z,6.00
2023-02-14T05:17:28.204Z,5.70
2023-02-14T05:18:28.127Z,5.40
2023-02-14T05:19:28.190Z,5.30
2023-02-14T05:20:28.131Z,6.10
2023-02-14T05:21:28.124Z,6.40
2023-02-14T05:22:28.092Z,5.40
2023-02-14T05:23:28.114Z,5.40
2023-02-14T05:24:28.082Z,6.20
2023-02-14T05:25:28.084Z,5.70
2023-02-14T05:26:28.085Z,7.00
2023-02-14T05:27:28.051Z,5.80
2023-02-14T05:28:28.068Z,5.50
2023-02-14T05:29:28.099Z,5.80
2023-02-14T05:30:28.252Z,5.70
2023-02-14T05:31:28.152Z,4.80
2023-02-14T05:32:27.990Z,5.40
2023-02-14T05:33:27.974Z,5.40
2023-02-14T05:34:27.962Z,5.70
2023-02-14T05:35:28.051Z,5.60
2023-02-14T05:36:28.004Z,5.80
2023-02-14T05:37:27.933Z,4.80
2023-02-14T05:38:27.930Z,5.00
2023-02-14T05:39:27.909Z,5.40
2023-02-14T05:40:27.925Z,5.00
2023-02-14T05:41:27.932Z,5.80
2023-02-14T05:42:27.878Z,5.50
2023-02-14T05:43:27.899Z,4.70
2023-02-14T05:44:27.859Z,4.60
2023-02-14T05:45:27.860Z,4.90
2023-02-14T05:46:27.890Z,5.90
2023-02-14T05:47:27.832Z,6.10
2023-02-14T05:48:27.840Z,6.40
2023-02-14T05:49:27.832Z,5.60
2023-02-14T05:50:27.845Z,5.00
2023-02-14T05:51:27.811Z,5.20
2023-02-14T05:52:27.794Z,4.80
2023-02-14T05:53:27.778Z,5.50
2023-02-14T05:54:27.761Z,4.90
2023-02-14T05:55:27.776Z,5.90
2023-02-14T05:56:27.800Z,5.80
2023-02-14T05:57:27.736Z,4.90
2023-02-14T05:58:27.753Z,5.30
2023-02-14T05:59:27.742Z,6.00
2023-02-14T06:00:27.709Z,5.70
2023-02-14T06:01:27.710Z,5.30
2023-02-14T06:02:27.707Z,5.10
2023-02-14T06:03:27.715Z,5.70
2023-02-14T06:04:27.761Z,5.40
2023-02-14T06:05:27.694Z,5.30
2023-02-14T06:06:28.016Z,6.00
2023-02-14T06:07:27.627Z,5.50
2023-02-14T06:08:27.630Z,4.90
2023-02-14T06:09:27.612Z,4.80
2023-02-14T06:10:27.625Z,5.70
2023-02-14T06:11:27.607Z,5.20
2023-02-14T06:12:27.618Z,4.90
2023-02-14T06:13:28.531Z,4.90
2023-02-14T06:14:27.591Z,5.60
2023-02-14T06:15:27.600Z,4.90
2023-02-14T06:16:27.657Z,5.20
2023-02-14T06:17:27.569Z,6.00
2023-02-14T06:18:27.526Z,6.10
2023-02-14T06:19:27.609Z,5.40
2023-02-14T06:20:27.540Z,5.90
2023-02-14T06:21:27.485Z,6.40
2023-02-14T06:22:29.218Z,5.60
2023-02-14T06:23:27.470Z,5.60
2023-02-14T06:24:27.495Z,6.00
2023-02-14T06:25:27.463Z,6.50
2023-02-14T06:26:27.460Z,6.40
2023-02-14T06:27:27.441Z,5.90
2023-02-14T06:28:27.447Z,7.20
2023-02-14T06:29:27.482Z,5.10
2023-02-14T06:30:27.640Z,4.40
2023-02-14T06:31:27.527Z,4.10
2023-02-14T06:32:27.367Z,4.50
2023-02-14T06:33:27.378Z,3.80
2023-02-14T06:34:27.447Z,4.60
2023-02-14T06:35:27.362Z,3.70
2023-02-14T06:36:27.512Z,3.70
2023-02-14T06:37:27.332Z,4.00
2023-02-14T06:38:27.404Z,4.10
2023-02-14T06:39:27.307Z,4.10
2023-02-14T06:40:27.385Z,3.70
2023-02-14T06:41:27.364Z,4.30
2023-02-14T06:42:27.310Z,6.10
2023-02-14T06:43:27.337Z,6.80
2023-02-14T06:44:27.324Z,5.70
2023-02-14T06:45:27.238Z,9.90
2023-02-14T06:46:27.276Z,9.70
2023-02-14T06:47:27.322Z,13.00
2023-02-14T06:48:27.239Z,12.10
2023-02-14T06:49:27.272Z,15.60
2023-02-14T06:50:27.183Z,16.00
2023-02-14T06:51:27.200Z,11.40
2023-02-14T06:52:27.209Z,9.70
2023-02-14T06:53:27.202Z,9.00
2023-02-14T06:54:27.156Z,10.80
2023-02-14T06:55:27.191Z,11.30
2023-02-14T06:56:27.600Z,10.70
2023-02-14T06:57:27.121Z,8.80
2023-02-14T06:58:27.143Z,8.10
2023-02-14T06:59:27.135Z,6.60
2023-02-14T07:00:27.187Z,7.10
2023-02-14T07:01:27.204Z,6.10
2023-02-14T07:02:27.202Z,5.60
2023-02-14T07:03:27.050Z,5.10
2023-02-14T07:04:27.043Z,5.40
2023-02-14T07:05:27.157Z,5.90
2023-02-14T07:06:27.064Z,7.20
2023-02-14T07:07:27.079Z,5.60
2023-02-14T07:08:27.006Z,6.00
2023-02-14T07:09:26.991Z,6.90
2023-02-14T07:10:27.078Z,6.20
2023-02-14T07:11:27.038Z,7.40
2023-02-14T07:12:27.075Z,7.80
2023-02-14T07:13:27.003Z,7.20
2023-02-14T07:14:26.973Z,7.30
2023-02-14T07:15:27.069Z,7.60
2023-02-14T07:16:26.997Z,7.20
2023-02-14T07:17:26.942Z,5.40
2023-02-14T07:18:26.933Z,5.20
2023-02-14T07:19:26.916Z,5.20
2023-02-14T07:20:26.973Z,5.50
2023-02-14T07:21:26.895Z,5.00
2023-02-14T07:22:26.894Z,5.00
2023-02-14T07:23:26.844Z,5.00
2023-02-14T07:24:27.006Z,4.90
2023-02-14T07:25:26.836Z,5.30
2023-02-14T07:26:26.873Z,5.60
2023-02-14T07:27:26.865Z,6.80
2023-02-14T07:28:26.946Z,5.60
2023-02-14T07:29:26.816Z,5.40
2023-02-14T07:30:26.863Z,6.00
2023-02-14T07:31:26.885Z,5.20
2023-02-14T07:32:27.075Z,5.20
2023-02-14T07:33:26.782Z,5.00
2023-02-14T07:34:26.730Z,5.30
2023-02-14T07:35:26.723Z,4.60
2023-02-14T07:36:26.784Z,5.50
2023-02-14T07:37:27.008Z,6.50
2023-02-14T07:38:26.796Z,5.60
2023-02-14T07:39:26.823Z,4.90
2023-02-14T07:40:26.720Z,4.40
2023-02-14T07:41:26.695Z,4.60
2023-02-14T07:42:26.712Z,4.80
2023-02-14T07:43:26.640Z,4.50
2023-02-14T07:44:26.671Z,4.80
2023-02-14T07:45:26.679Z,5.30
2023-02-14T07:46:26.778Z,5.80
2023-02-14T07:47:26.659Z,4.80
2023-02-14T07:48:28.851Z,4.80
2023-02-14T07:49:26.680Z,4.70
2023-02-14T07:50:26.599Z,4.70
2023-02-14T07:51:26.611Z,5.00
2023-02-14T07:52:26.562Z,4.90
2023-02-14T07:53:26.584Z,4.50
2023-02-14T07:54:26.664Z,5.00
2023-02-14T07:55:26.577Z,5.20
2023-02-14T07:56:27.057Z,4.90
2023-02-14T07:57:26.505Z,5.00
2023-02-14T07:58:26.510Z,4.50
2023-02-14T07:59:26.467Z,5.00
2023-02-14T08:00:26.500Z,4.60
2023-02-14T08:01:26.525Z,4.00
2023-02-14T08:02:26.441Z,4.50
2023-02-14T08:03:27.029Z,4.20
2023-02-14T08:04:26.507Z,4.40
2023-02-14T08:05:26.549Z,4.70
2023-02-14T08:06:26.433Z,4.90
2023-02-14T08:07:26.436Z,5.10
2023-02-14T08:08:26.690Z,5.40
2023-02-14T08:09:26.367Z,5.70
2023-02-14T08:10:26.361Z,5.70
2023-02-14T08:11:26.433Z,5.90
2023-02-14T08:12:26.456Z,6.50
2023-02-14T08:13:26.364Z,5.90
2023-02-14T08:14:26.464Z,5.00
2023-02-14T08:15:26.349Z,5.20
2023-02-14T08:16:26.463Z,4.80
2023-02-14T08:17:26.293Z,4.50
2023-02-14T08:18:26.318Z,5.60
2023-02-14T08:19:26.319Z,4.60
2023-02-14T08:20:26.322Z,5.30
2023-02-14T08:21:27.017Z,4.50
2023-02-14T08:22:26.260Z,5.30
2023-02-14T08:23:26.227Z,5.50
2023-02-14T08:24:26.261Z,5.30
2023-02-14T08:25:26.231Z,5.60
2023-02-14T08:26:26.213Z,5.10
2023-02-14T08:27:26.356Z,4.80
2023-02-14T08:28:26.181Z,4.20
2023-02-14T08:29:26.164Z,4.30
2023-02-14T08:30:26.270Z,5.00
2023-02-14T08:31:35.087Z,4.40
2023-02-14T08:32:27.378Z,3.90
2023-02-14T08:33:26.119Z,4.50
2023-02-14T08:34:26.172Z,3.80
2023-02-14T08:35:26.304Z,3.90
2023-02-14T08:36:26.151Z,4.10
2023-02-14T08:37:26.123Z,4.00
2023-02-14T08:38:26.194Z,4.50
2023-02-14T08:39:26.062Z,4.10
2023-02-14T08:40:26.232Z,3.90
2023-02-14T08:41:26.043Z,4.00
2023-02-14T08:42:26.018Z,4.20
2023-02-14T08:43:26.019Z,3.90
2023-02-14T08:44:26.070Z,3.90
2023-02-14T08:45:25.989Z,5.00
2023-02-14T08:46:26.018Z,5.20
2023-02-14T08:47:25.998Z,4.80
2023-02-14T08:48:25.989Z,5.60
2023-02-14T08:49:25.950Z,4.70
2023-02-14T08:50:25.946Z,5.30
2023-02-14T08:51:25.958Z,5.20
2023-02-14T08:52:26.033Z,6.00
2023-02-14T08:53:25.914Z,5.10
2023-02-14T08:54:25.920Z,6.20
2023-02-14T08:55:25.908Z,5.70
2023-02-14T08:56:25.902Z,4.80
2023-02-14T08:57:25.888Z,4.80
2023-02-14T08:58:25.884Z,5.40
2023-02-14T08:59:25.843Z,4.30
2023-02-14T09:00:25.880Z,5.60
2023-02-14T09:01:25.909Z,4.60
2023-02-14T09:02:25.827Z,5.40
2023-02-14T09:03:25.843Z,5.50
2023-02-14T09:04:25.830Z,5.20
2023-02-14T09:05:25.856Z,5.80
2023-02-14T09:06:25.784Z,5.40
2023-02-14T09:07:25.759Z,5.40
2023-02-14T09:08:25.802Z,5.20
2023-02-14T09:09:25.745Z,5.10
2023-02-14T09:10:25.826Z,5.20
2023-02-14T09:11:25.770Z,5.80
2023-02-14T09:12:25.711Z,5.80
2023-02-14T09:13:25.729Z,4.90
2023-02-14T09:14:25.689Z,4.10
2023-02-14T09:15:25.746Z,5.30
2023-02-14T09:16:25.762Z,5.00
2023-02-14T09:17:25.667Z,5.90
2023-02-14T09:18:25.800Z,4.70
2023-02-14T09:19:25.635Z,5.00
2023-02-14T09:20:25.697Z,5.90
2023-02-14T09:21:25.629Z,5.90
2023-02-14T09:22:25.602Z,6.10
2023-02-14T09:23:25.622Z,6.40
2023-02-14T09:24:25.604Z,6.50
2023-02-14T09:25:25.607Z,5.10
2023-02-14T09:26:25.577Z,5.90
2023-02-14T09:27:25.558Z,5.90
2023-02-14T09:28:25.605Z,6.00
2023-02-14T09:29:25.529Z,5.80
2023-02-14T09:30:25.678Z,4.80
2023-02-14T09:31:25.692Z,6.30
2023-02-14T09:32:25.576Z,5.50
2023-02-14T09:33:25.500Z,6.70
2023-02-14T09:34:25.493Z,6.40
2023-02-14T09:35:25.520Z,5.20
2023-02-14T09:36:25.484Z,6.00
2023-02-14T09:37:25.460Z,5.90
2023-02-14T09:38:25.445Z,6.40
2023-02-14T09:39:25.424Z,5.50
2023-02-14T09:40:25.456Z,5.50
2023-02-14T09:41:25.483Z,6.30
2023-02-14T09:42:25.388Z,6.10
2023-02-14T09:43:25.393Z,6.30
2023-02-14T09:44:25.439Z,6.40
2023-02-14T09:45:25.359Z,6.00
2023-02-14T09:46:25.369Z,5.20
2023-02-14T09:47:25.335Z,6.40
2023-02-14T09:48:27.220Z,6.90
2023-02-14T09:49:25.500Z,6.20
2023-02-14T09:50:25.370Z,5.70
2023-02-14T09:51:25.295Z,5.60
2023-02-14T09:52:25.306Z,6.10
2023-02-14T09:53:25.274Z,6.50
2023-02-14T09:54:25.289Z,6.10
2023-02-14T09:55:25.257Z,6.60
2023-02-14T09:56:25.341Z,5.50
2023-02-14T09:57:25.295Z,5.80
2023-02-14T09:58:27.642Z,6.60
2023-02-14T09:59:25.219Z,6.20
2023-02-14T10:00:25.215Z,6.30
2023-02-14T10:01:25.369Z,6.90
2023-02-14T10:02:25.298Z,6.90
2023-02-14T10:03:25.172Z,7.70
2023-02-14T10:04:25.179Z,8.00
2023-02-14T10:05:25.158Z,7.40
2023-02-14T10:06:25.186Z,6.70
2023-02-14T10:07:25.139Z,7.40
2023-02-14T10:08:25.122Z,6.80
2023-02-14T10:09:25.112Z,7.60
2023-02-14T10:10:25.130Z,8.20
2023-02-14T10:11:25.116Z,7.50
2023-02-14T10:12:25.181Z,7.50
2023-02-14T10:13:25.060Z,8.00
2023-02-14T10:14:25.054Z,8.50
2023-02-14T10:15:25.045Z,6.90
2023-02-14T10:16:26.869Z,7.80
2023-02-14T10:17:25.061Z,8.10
2023-02-14T10:18:25.017Z,7.10
2023-02-14T10:19:25.007Z,8.00
2023-02-14T10:20:24.989Z,8.20
2023-02-14T10:21:25.004Z,8.10
2023-02-14T10:22:24.970Z,9.00
2023-02-14T10:23:24.984Z,7.30
2023-02-14T10:24:24.960Z,7.80
2023-02-14T10:25:24.947Z,8.20
2023-02-14T10:26:24.962Z,8.10
2023-02-14T10:27:24.938Z,8.10
2023-02-14T10:28:24.905Z,8.70
2023-02-14T10:29:24.983Z,8.10
2023-02-14T10:30:25.011Z,8.30
2023-02-14T10:31:25.074Z,8.10
2023-02-14T10:32:24.955Z,8.10
2023-02-14T10:33:24.853Z,8.30
2023-02-14T10:34:24.849Z,8.10
2023-02-14T10:35:24.867Z,9.00
2023-02-14T10:36:24.848Z,8.80
2023-02-14T10:37:24.809Z,8.90
2023-02-14T10:38:24.808Z,8.80
2023-02-14T10:39:24.808Z,8.50
2023-02-14T10:40:24.780Z,8.00
2023-02-14T10:41:24.850Z,8.90
2023-02-14T10:42:24.777Z,8.50
2023-02-14T10:43:24.764Z,8.90
2023-02-14T10:44:24.778Z,9.30
2023-02-14T10:45:24.736Z,9.30
2023-02-14T10:46:24.787Z,9.50
2023-02-14T10:47:24.760Z,8.20
2023-02-14T10:48:24.702Z,9.00
2023-02-14T10:49:24.687Z,8.80
2023-02-14T10:50:24.673Z,9.50
2023-02-14T10:51:24.689Z,10.00
2023-02-14T10:52:24.698Z,9.90
2023-02-14T10:53:24.662Z,10.20
2023-02-14T10:54:24.637Z,9.00
2023-02-14T10:55:32.289Z,8.70
2023-02-14T10:56:25.640Z,9.40
2023-02-14T10:57:24.610Z,10.00
2023-02-14T10:58:24.613Z,9.30
2023-02-14T10:59:24.593Z,8.80
2023-02-14T11:00:24.576Z,8.90
2023-02-14T11:01:24.641Z,9.10
2023-02-14T11:02:24.563Z,8.50
2023-02-14T11:03:24.595Z,9.30
2023-02-14T11:04:24.563Z,9.40
2023-02-14T11:05:24.523Z,9.00
2023-02-14T11:06:24.530Z,8.20
2023-02-14T11:07:24.497Z,9.20
2023-02-14T11:08:24.491Z,9.40
2023-02-14T11:09:24.528Z,8.70
2023-02-14T11:10:24.543Z,9.20
2023-02-14T11:11:24.495Z,9.10
2023-02-14T11:12:24.484Z,9.00
2023-02-14T11:13:24.431Z,7.80
2023-02-14T11:14:24.440Z,9.00
2023-02-14T11:15:24.494Z,7.50
2023-02-14T11:16:24.424Z,8.60
2023-02-14T11:17:24.391Z,8.40
2023-02-14T11:18:24.394Z,8.40
2023-02-14T11:19:24.368Z,8.60
2023-02-14T11:20:24.457Z,8.30
2023-02-14T11:21:24.428Z,7.90
2023-02-14T11:22:24.333Z,8.60
2023-02-14T11:23:24.336Z,8.50
2023-02-14T11:24:24.349Z,8.00
2023-02-14T11:25:24.309Z,8.40
2023-02-14T11:26:24.347Z,8.40
2023-02-14T11:27:24.344Z,8.30
2023-02-14T11:28:24.272Z,7.90
2023-02-14T11:29:24.275Z,7.50
2023-02-14T11:30:24.306Z,8.40
2023-02-14T11:31:24.439Z,7.50
2023-02-14T11:32:24.301Z,7.50
2023-02-14T11:33:24.229Z,7.30
2023-02-14T11:34:24.255Z,7.80
2023-02-14T11:35:24.245Z,8.60
2023-02-14T11:36:24.211Z,7.60
2023-02-14T11:37:24.177Z,7.60
2023-02-14T11:38:24.174Z,7.80
2023-02-14T11:39:24.168Z,7.40
2023-02-14T11:40:24.145Z,7.40
2023-02-14T11:41:25.207Z,8.00
2023-02-14T11:42:24.120Z,8.70
2023-02-14T11:43:24.109Z,7.60
2023-02-14T11:44:24.117Z,8.30
2023-02-14T11:45:24.102Z,8.20
2023-02-14T11:46:24.272Z,7.90
2023-02-14T11:47:24.130Z,9.10
2023-02-14T11:48:37.265Z,8.20
2023-02-14T11:49:25.059Z,7.80
2023-02-14T11:50:24.042Z,9.20
2023-02-14T11:51:24.051Z,8.40
2023-02-14T11:52:24.019Z,8.90
2023-02-14T11:53:24.042Z,8.90
2023-02-14T11:54:23.999Z,8.90
2023-02-14T11:55:23.998Z,8.00
2023-02-14T11:56:24.005Z,7.90
2023-02-14T11:57:23.990Z,8.20
2023-02-14T11:58:23.958Z,8.90
2023-02-14T11:59:23.988Z,8.90
2023-02-14T12:00:24.075Z,9.00
2023-02-14T12:01:23.963Z,9.40
2023-02-14T12:02:23.951Z,9.30
2023-02-14T12:03:23.952Z,9.40
2023-02-14T12:04:23.904Z,9.80
2023-02-14T12:05:23.950Z,8.70
2023-02-14T12:06:23.891Z,8.90
2023-02-14T12:07:23.865Z,9.50
2023-02-14T12:08:23.851Z,9.30
2023-02-14T12:09:23.888Z,8.80
2023-02-14T12:10:23.857Z,9.30
2023-02-14T12:11:23.842Z,9.00
2023-02-14T12:12:23.918Z,9.30
2023-02-14T12:13:23.801Z,8.10
2023-02-14T12:14:23.786Z,9.80
2023-02-14T12:15:23.810Z,9.50
2023-02-14T12:16:23.794Z,9.20
2023-02-14T12:17:23.823Z,9.00
2023-02-14T12:18:23.772Z,8.70
2023-02-14T12:19:23.755Z,8.20
2023-02-14T12:20:23.728Z,9.00
2023-02-14T12:21:23.752Z,8.20
2023-02-14T12:22:23.726Z,8.50
2023-02-14T12:23:23.698Z,8.90
2023-02-14T12:24:23.913Z,8.10
2023-02-14T12:25:23.674Z,8.20
2023-02-14T12:26:23.824Z,9.20
2023-02-14T12:27:23.678Z,8.20
2023-02-14T12:28:23.665Z,7.50
2023-02-14T12:29:23.638Z,8.30
2023-02-14T12:30:23.690Z,9.10
2023-02-14T12:31:23.725Z,8.00
2023-02-14T12:32:23.620Z,9.80
2023-02-14T12:33:23.592Z,7.90
2023-02-14T12:34:23.585Z,8.80
2023-02-14T12:35:23.581Z,8.00
2023-02-14T12:36:23.583Z,8.90
2023-02-14T12:37:23.563Z,8.50
2023-02-14T12:38:23.545Z,8.10
2023-02-14T12:39:23.531Z,8.80
2023-02-14T12:40:23.522Z,8.20
2023-02-14T12:41:23.540Z,8.50
2023-02-14T12:42:23.552Z,8.60
2023-02-14T12:43:23.481Z,8.20
2023-02-14T12:44:23.464Z,8.90
2023-02-14T12:45:23.465Z,8.90
2023-02-14T12:46:23.489Z,8.10
2023-02-14T12:47:23.474Z,7.90
2023-02-14T12:48:23.424Z,8.40
2023-02-14T12:49:23.488Z,8.30
2023-02-14T12:50:23.412Z,8.50
2023-02-14T12:51:23.447Z,9.00
2023-02-14T12:52:23.435Z,8.80
2023-02-14T12:53:23.372Z,8.00
2023-02-14T12:54:23.386Z,8.20
2023-02-14T12:55:23.357Z,8.40
2023-02-14T12:56:23.402Z,8.80
2023-02-14T12:57:23.356Z,8.50
2023-02-14T12:58:23.325Z,8.50
2023-02-14T12:59:23.345Z,9.50
2023-02-14T13:00:23.334Z,9.40
2023-02-14T13:01:28.984Z,10.50
2023-02-14T13:02:24.440Z,9.70
2023-02-14T13:03:23.297Z,9.20
2023-02-14T13:04:23.465Z,9.30
2023-02-14T13:05:23.252Z,8.10
2023-02-14T13:06:23.247Z,8.10
2023-02-14T13:07:23.252Z,8.20
2023-02-14T13:08:23.218Z,8.30
2023-02-14T13:09:23.236Z,8.20
2023-02-14T13:10:23.199Z,8.20
2023-02-14T13:11:23.190Z,8.30
2023-02-14T13:12:23.174Z,8.50
2023-02-14T13:13:23.219Z,8.00
2023-02-14T13:14:23.172Z,8.40
2023-02-14T13:15:23.145Z,8.90
2023-02-14T13:16:23.203Z,8.50
2023-02-14T13:17:23.123Z,8.50
2023-02-14T13:18:23.110Z,9.10